sensor_id;sensor_type;location;lat;lon;timestamp;P1;durP1;ratioP1;P2;durP2;ratioP2
22131;SDS011;11232;51.748;19.390;2023-07-02T00:00:12;25.60;;;15.65;;
22131;SDS011;11232;51.748;19.390;2023-07-02T00:02:38;24.70;;;14.65;;
22131;SDS011;11232;51.748;19.390;2023-07-02T00:05:04;25.10;;;14.55;;
22131;SDS011;11232;51.748;19.390;2023-07-02T00:07:30;24.35;;;14.88;;
22131;SDS011;11232;51.748;19.390;2023-07-02T00:09:57;20.40;;;12.77;;
22131;SDS011;11232;51.748;19.390;2023-07-02T00:12:23;21.88;;;13.75;;
22131;SDS011;11232;51.748;19.390;2023-07-02T00:14:49;23.15;;;14.77;;
22131;SDS011;11232;51.748;19.390;2023-07-02T00:17:18;22.83;;;13.75;;
22131;SDS011;11232;51.748;19.390;2023-07-02T00:19:44;22.90;;;14.32;;
22131;SDS011;11232;51.748;19.390;2023-07-02T00:22:11;23.40;;;14.50;;
22131;SDS011;11232;51.748;19.390;2023-07-02T00:24:37;26.30;;;15.75;;
22131;SDS011;11232;51.748;19.390;2023-07-02T00:27:03;23.75;;;14.18;;
22131;SDS011;11232;51.748;19.390;2023-07-02T00:29:29;23.80;;;15.30;;
22131;SDS011;11232;51.748;19.390;2023-07-02T00:31:55;25.20;;;14.50;;
22131;SDS011;11232;51.748;19.390;2023-07-02T00:34:21;25.05;;;15.45;;
22131;SDS011;11232;51.748;19.390;2023-07-02T00:36:48;24.25;;;13.48;;
22131;SDS011;11232;51.748;19.390;2023-07-02T00:39:14;23.40;;;13.98;;
22131;SDS011;11232;51.748;19.390;2023-07-02T00:41:42;21.92;;;14.02;;
22131;SDS011;11232;51.748;19.390;2023-07-02T00:44:11;22.52;;;13.60;;
22131;SDS011;11232;51.748;19.390;2023-07-02T00:46:37;23.85;;;14.25;;
22131;SDS011;11232;51.748;19.390;2023-07-02T00:49:04;24.38;;;14.07;;
22131;SDS011;11232;51.748;19.390;2023-07-02T00:51:30;23.20;;;14.30;;
22131;SDS011;11232;51.748;19.390;2023-07-02T00:53:57;21.05;;;13.38;;
22131;SDS011;11232;51.748;19.390;2023-07-02T00:56:24;21.92;;;12.98;;
22131;SDS011;11232;51.748;19.390;2023-07-02T00:58:51;21.02;;;13.43;;
22131;SDS011;11232;51.748;19.390;2023-07-02T01:01:18;22.90;;;13.30;;
22131;SDS011;11232;51.748;19.390;2023-07-02T01:03:51;21.58;;;12.82;;
22131;SDS011;11232;51.748;19.390;2023-07-02T01:06:23;19.25;;;12.25;;
22131;SDS011;11232;51.748;19.390;2023-07-02T01:08:59;18.88;;;12.70;;
22131;SDS011;11232;51.748;19.390;2023-07-02T01:11:27;21.67;;;12.82;;
22131;SDS011;11232;51.748;19.390;2023-07-02T01:13:54;19.30;;;12.98;;
22131;SDS011;11232;51.748;19.390;2023-07-02T01:16:20;21.08;;;12.48;;
22131;SDS011;11232;51.748;19.390;2023-07-02T01:18:47;19.63;;;11.82;;
22131;SDS011;11232;51.748;19.390;2023-07-02T01:21:13;18.73;;;11.18;;
22131;SDS011;11232;51.748;19.390;2023-07-02T01:23:39;20.50;;;12.45;;
22131;SDS011;11232;51.748;19.390;2023-07-02T01:26:06;21.20;;;12.30;;
22131;SDS011;11232;51.748;19.390;2023-07-02T01:28:35;18.40;;;11.65;;
22131;SDS011;11232;51.748;19.390;2023-07-02T01:31:03;22.15;;;12.65;;
22131;SDS011;11232;51.748;19.390;2023-07-02T01:33:30;18.70;;;11.48;;
22131;SDS011;11232;51.748;19.390;2023-07-02T01:35:56;18.60;;;11.20;;
22131;SDS011;11232;51.748;19.390;2023-07-02T01:38:22;20.88;;;11.75;;
22131;SDS011;11232;51.748;19.390;2023-07-02T01:40:48;20.63;;;11.95;;
22131;SDS011;11232;51.748;19.390;2023-07-02T01:43:14;21.98;;;11.30;;
22131;SDS011;11232;51.748;19.390;2023-07-02T01:45:41;17.95;;;10.77;;
22131;SDS011;11232;51.748;19.390;2023-07-02T01:48:07;21.17;;;11.32;;
22131;SDS011;11232;51.748;19.390;2023-07-02T01:50:33;17.83;;;11.63;;
22131;SDS011;11232;51.748;19.390;2023-07-02T01:52:59;18.77;;;12.05;;
22131;SDS011;11232;51.748;19.390;2023-07-02T01:55:25;14.63;;;10.55;;
22131;SDS011;11232;51.748;19.390;2023-07-02T01:57:51;20.48;;;11.57;;
22131;SDS011;11232;51.748;19.390;2023-07-02T02:00:17;18.85;;;11.60;;
22131;SDS011;11232;51.748;19.390;2023-07-02T02:02:43;18.15;;;11.32;;
22131;SDS011;11232;51.748;19.390;2023-07-02T02:05:09;17.23;;;10.88;;
22131;SDS011;11232;51.748;19.390;2023-07-02T02:07:35;20.77;;;11.68;;
22131;SDS011;11232;51.748;19.390;2023-07-02T02:10:02;21.92;;;11.25;;
22131;SDS011;11232;51.748;19.390;2023-07-02T02:12:29;18.75;;;11.88;;
22131;SDS011;11232;51.748;19.390;2023-07-02T02:14:55;19.92;;;11.40;;
22131;SDS011;11232;51.748;19.390;2023-07-02T02:17:21;17.70;;;11.85;;
22131;SDS011;11232;51.748;19.390;2023-07-02T02:19:48;20.42;;;11.48;;
22131;SDS011;11232;51.748;19.390;2023-07-02T02:22:14;18.25;;;10.48;;
22131;SDS011;11232;51.748;19.390;2023-07-02T02:24:41;18.38;;;11.35;;
22131;SDS011;11232;51.748;19.390;2023-07-02T02:27:07;17.08;;;11.23;;
22131;SDS011;11232;51.748;19.390;2023-07-02T02:29:33;17.35;;;11.25;;
22131;SDS011;11232;51.748;19.390;2023-07-02T02:31:59;18.65;;;10.27;;
22131;SDS011;11232;51.748;19.390;2023-07-02T02:34:25;16.08;;;10.43;;
22131;SDS011;11232;51.748;19.390;2023-07-02T02:36:51;17.65;;;11.13;;
22131;SDS011;11232;51.748;19.390;2023-07-02T02:39:20;19.52;;;10.75;;
22131;SDS011;11232;51.748;19.390;2023-07-02T02:41:46;17.45;;;10.68;;
22131;SDS011;11232;51.748;19.390;2023-07-02T02:44:12;21.90;;;10.90;;
22131;SDS011;11232;51.748;19.390;2023-07-02T02:46:38;16.38;;;10.25;;
22131;SDS011;11232;51.748;19.390;2023-07-02T02:49:04;16.27;;;10.45;;
22131;SDS011;11232;51.748;19.390;2023-07-02T02:51:30;19.08;;;11.25;;
22131;SDS011;11232;51.748;19.390;2023-07-02T02:53:55;16.80;;;11.27;;
22131;SDS011;11232;51.748;19.390;2023-07-02T02:56:21;17.40;;;10.52;;
22131;SDS011;11232;51.748;19.390;2023-07-02T02:58:47;17.63;;;10.65;;
22131;SDS011;11232;51.748;19.390;2023-07-02T03:01:13;16.38;;;9.35;;
22131;SDS011;11232;51.748;19.390;2023-07-02T03:03:39;20.08;;;11.00;;
22131;SDS011;11232;51.748;19.390;2023-07-02T03:06:09;15.48;;;10.45;;
22131;SDS011;11232;51.748;19.390;2023-07-02T03:08:36;17.10;;;9.93;;
22131;SDS011;11232;51.748;19.390;2023-07-02T03:11:01;15.55;;;10.30;;
22131;SDS011;11232;51.748;19.390;2023-07-02T03:13:27;17.60;;;10.82;;
22131;SDS011;11232;51.748;19.390;2023-07-02T03:15:53;22.30;;;10.95;;
22131;SDS011;11232;51.748;19.390;2023-07-02T03:18:19;17.15;;;10.70;;
22131;SDS011;11232;51.748;19.390;2023-07-02T03:20:45;17.10;;;10.38;;
22131;SDS011;11232;51.748;19.390;2023-07-02T03:23:11;17.67;;;10.32;;
22131;SDS011;11232;51.748;19.390;2023-07-02T03:25:37;16.67;;;9.85;;
22131;SDS011;11232;51.748;19.390;2023-07-02T03:28:03;16.33;;;10.20;;
22131;SDS011;11232;51.748;19.390;2023-07-02T03:30:29;18.40;;;10.45;;
22131;SDS011;11232;51.748;19.390;2023-07-02T03:32:55;15.98;;;9.98;;
22131;SDS011;11232;51.748;19.390;2023-07-02T03:35:21;17.02;;;10.77;;
22131;SDS011;11232;51.748;19.390;2023-07-02T03:37:47;18.10;;;10.63;;
22131;SDS011;11232;51.748;19.390;2023-07-02T03:40:13;14.70;;;10.18;;
22131;SDS011;11232;51.748;19.390;2023-07-02T03:42:39;16.48;;;9.73;;
22131;SDS011;11232;51.748;19.390;2023-07-02T03:45:05;17.70;;;10.68;;
22131;SDS011;11232;51.748;19.390;2023-07-02T03:47:31;14.85;;;9.88;;
22131;SDS011;11232;51.748;19.390;2023-07-02T03:49:57;20.15;;;11.30;;
22131;SDS011;11232;51.748;19.390;2023-07-02T03:52:23;18.05;;;10.27;;
22131;SDS011;11232;51.748;19.390;2023-07-02T03:54:49;15.23;;;10.13;;
22131;SDS011;11232;51.748;19.390;2023-07-02T03:57:15;15.90;;;10.95;;
22131;SDS011;11232;51.748;19.390;2023-07-02T03:59:41;19.48;;;10.57;;
22131;SDS011;11232;51.748;19.390;2023-07-02T04:02:07;15.23;;;10.27;;
22131;SDS011;11232;51.748;19.390;2023-07-02T04:04:33;15.90;;;10.45;;
22131;SDS011;11232;51.748;19.390;2023-07-02T04:06:59;17.80;;;9.82;;
22131;SDS011;11232;51.748;19.390;2023-07-02T04:09:25;15.98;;;10.27;;
22131;SDS011;11232;51.748;19.390;2023-07-02T04:11:51;16.95;;;9.82;;
22131;SDS011;11232;51.748;19.390;2023-07-02T04:14:17;15.88;;;10.02;;
22131;SDS011;11232;51.748;19.390;2023-07-02T04:16:43;15.77;;;10.88;;
22131;SDS011;11232;51.748;19.390;2023-07-02T04:19:09;18.70;;;11.07;;
22131;SDS011;11232;51.748;19.390;2023-07-02T04:21:35;15.75;;;10.30;;
22131;SDS011;11232;51.748;19.390;2023-07-02T04:24:01;16.63;;;9.82;;
22131;SDS011;11232;51.748;19.390;2023-07-02T04:26:27;15.27;;;9.98;;
22131;SDS011;11232;51.748;19.390;2023-07-02T04:28:54;16.10;;;10.63;;
22131;SDS011;11232;51.748;19.390;2023-07-02T04:31:21;21.20;;;10.38;;
22131;SDS011;11232;51.748;19.390;2023-07-02T04:33:47;14.52;;;9.77;;
22131;SDS011;11232;51.748;19.390;2023-07-02T04:36:12;14.50;;;8.73;;
22131;SDS011;11232;51.748;19.390;2023-07-02T04:38:39;16.55;;;10.35;;
22131;SDS011;11232;51.748;19.390;2023-07-02T04:41:05;16.35;;;9.63;;
22131;SDS011;11232;51.748;19.390;2023-07-02T04:43:31;16.20;;;10.10;;
22131;SDS011;11232;51.748;19.390;2023-07-02T04:45:58;19.83;;;10.73;;
22131;SDS011;11232;51.748;19.390;2023-07-02T04:48:24;17.23;;;10.15;;
22131;SDS011;11232;51.748;19.390;2023-07-02T04:50:50;15.77;;;10.07;;
22131;SDS011;11232;51.748;19.390;2023-07-02T04:53:16;16.00;;;9.20;;
22131;SDS011;11232;51.748;19.390;2023-07-02T04:55:42;18.80;;;9.77;;
22131;SDS011;11232;51.748;19.390;2023-07-02T04:58:08;14.27;;;8.85;;
22131;SDS011;11232;51.748;19.390;2023-07-02T05:00:34;18.42;;;9.50;;
22131;SDS011;11232;51.748;19.390;2023-07-02T05:03:00;13.52;;;8.50;;
22131;SDS011;11232;51.748;19.390;2023-07-02T05:05:26;13.30;;;8.43;;
22131;SDS011;11232;51.748;19.390;2023-07-02T05:07:53;14.82;;;9.73;;
22131;SDS011;11232;51.748;19.390;2023-07-02T05:10:20;12.98;;;8.48;;
22131;SDS011;11232;51.748;19.390;2023-07-02T05:12:46;14.55;;;9.23;;
22131;SDS011;11232;51.748;19.390;2023-07-02T05:15:12;18.05;;;9.25;;
22131;SDS011;11232;51.748;19.390;2023-07-02T05:17:38;12.23;;;8.95;;
22131;SDS011;11232;51.748;19.390;2023-07-02T05:20:04;15.90;;;8.80;;
22131;SDS011;11232;51.748;19.390;2023-07-02T05:22:30;14.32;;;8.85;;
22131;SDS011;11232;51.748;19.390;2023-07-02T05:24:56;13.93;;;8.68;;
22131;SDS011;11232;51.748;19.390;2023-07-02T05:27:22;13.18;;;7.93;;
22131;SDS011;11232;51.748;19.390;2023-07-02T05:29:48;15.55;;;8.55;;
22131;SDS011;11232;51.748;19.390;2023-07-02T05:32:14;13.73;;;7.90;;
22131;SDS011;11232;51.748;19.390;2023-07-02T05:34:40;12.23;;;7.32;;
22131;SDS011;11232;51.748;19.390;2023-07-02T05:37:06;13.98;;;7.30;;
22131;SDS011;11232;51.748;19.390;2023-07-02T05:39:33;11.73;;;7.65;;
22131;SDS011;11232;51.748;19.390;2023-07-02T05:41:59;14.93;;;8.20;;
22131;SDS011;11232;51.748;19.390;2023-07-02T05:44:25;11.52;;;7.18;;
22131;SDS011;11232;51.748;19.390;2023-07-02T05:46:51;13.20;;;6.63;;
22131;SDS011;11232;51.748;19.390;2023-07-02T05:49:17;9.48;;;6.95;;
22131;SDS011;11232;51.748;19.390;2023-07-02T05:51:43;15.10;;;7.10;;
22131;SDS011;11232;51.748;19.390;2023-07-02T05:54:09;13.02;;;7.18;;
22131;SDS011;11232;51.748;19.390;2023-07-02T05:56:35;10.93;;;7.05;;
22131;SDS011;11232;51.748;19.390;2023-07-02T05:59:01;10.95;;;6.53;;
22131;SDS011;11232;51.748;19.390;2023-07-02T06:01:27;14.60;;;7.28;;
22131;SDS011;11232;51.748;19.390;2023-07-02T06:03:53;11.88;;;7.53;;
22131;SDS011;11232;51.748;19.390;2023-07-02T06:06:20;9.20;;;6.85;;
22131;SDS011;11232;51.748;19.390;2023-07-02T06:08:47;16.67;;;7.32;;
22131;SDS011;11232;51.748;19.390;2023-07-02T06:11:13;10.27;;;7.00;;
22131;SDS011;11232;51.748;19.390;2023-07-02T06:13:39;10.90;;;6.53;;
22131;SDS011;11232;51.748;19.390;2023-07-02T06:16:05;10.38;;;6.35;;
22131;SDS011;11232;51.748;19.390;2023-07-02T06:18:31;11.60;;;6.20;;
22131;SDS011;11232;51.748;19.390;2023-07-02T06:20:57;10.00;;;6.18;;
22131;SDS011;11232;51.748;19.390;2023-07-02T06:23:23;12.38;;;5.80;;
22131;SDS011;11232;51.748;19.390;2023-07-02T06:25:49;7.78;;;5.53;;
22131;SDS011;11232;51.748;19.390;2023-07-02T06:28:23;8.00;;;5.50;;
22131;SDS011;11232;51.748;19.390;2023-07-02T06:30:49;10.00;;;5.53;;
22131;SDS011;11232;51.748;19.390;2023-07-02T06:33:15;8.38;;;4.85;;
22131;SDS011;11232;51.748;19.390;2023-07-02T06:35:41;8.02;;;5.10;;
22131;SDS011;11232;51.748;19.390;2023-07-02T06:38:07;11.00;;;5.65;;
22131;SDS011;11232;51.748;19.390;2023-07-02T06:40:33;5.90;;;4.68;;
22131;SDS011;11232;51.748;19.390;2023-07-02T06:42:59;9.88;;;5.22;;
22131;SDS011;11232;51.748;19.390;2023-07-02T06:45:25;7.65;;;5.05;;
22131;SDS011;11232;51.748;19.390;2023-07-02T06:47:51;13.32;;;5.25;;
22131;SDS011;11232;51.748;19.390;2023-07-02T06:50:17;8.52;;;4.55;;
22131;SDS011;11232;51.748;19.390;2023-07-02T06:52:43;5.88;;;4.43;;
22131;SDS011;11232;51.748;19.390;2023-07-02T06:55:09;5.15;;;4.28;;
22131;SDS011;11232;51.748;19.390;2023-07-02T06:57:35;6.93;;;4.70;;
22131;SDS011;11232;51.748;19.390;2023-07-02T07:00:07;5.35;;;4.05;;
22131;SDS011;11232;51.748;19.390;2023-07-02T07:02:33;6.40;;;4.30;;
22131;SDS011;11232;51.748;19.390;2023-07-02T07:04:59;8.13;;;4.00;;
22131;SDS011;11232;51.748;19.390;2023-07-02T07:07:25;5.60;;;4.07;;
22131;SDS011;11232;51.748;19.390;2023-07-02T07:09:52;5.20;;;4.20;;
22131;SDS011;11232;51.748;19.390;2023-07-02T07:12:18;9.07;;;4.20;;
22131;SDS011;11232;51.748;19.390;2023-07-02T07:14:44;6.22;;;4.05;;
22131;SDS011;11232;51.748;19.390;2023-07-02T07:17:11;7.45;;;4.45;;
22131;SDS011;11232;51.748;19.390;2023-07-02T07:19:37;8.38;;;4.38;;
22131;SDS011;11232;51.748;19.390;2023-07-02T07:22:03;4.30;;;3.53;;
22131;SDS011;11232;51.748;19.390;2023-07-02T07:24:29;4.82;;;4.30;;
22131;SDS011;11232;51.748;19.390;2023-07-02T07:26:55;9.48;;;4.10;;
22131;SDS011;11232;51.748;19.390;2023-07-02T07:29:21;5.07;;;4.25;;
22131;SDS011;11232;51.748;19.390;2023-07-02T07:31:47;6.15;;;3.90;;
22131;SDS011;11232;51.748;19.390;2023-07-02T07:34:13;8.30;;;4.15;;
22131;SDS011;11232;51.748;19.390;2023-07-02T07:36:39;7.13;;;4.10;;
22131;SDS011;11232;51.748;19.390;2023-07-02T07:39:05;6.35;;;3.97;;
22131;SDS011;11232;51.748;19.390;2023-07-02T07:41:31;7.35;;;4.97;;
22131;SDS011;11232;51.748;19.390;2023-07-02T07:43:57;6.28;;;4.35;;
22131;SDS011;11232;51.748;19.390;2023-07-02T07:46:23;4.53;;;4.13;;
22131;SDS011;11232;51.748;19.390;2023-07-02T07:48:49;3.88;;;3.58;;
22131;SDS011;11232;51.748;19.390;2023-07-02T07:51:15;5.60;;;3.65;;
22131;SDS011;11232;51.748;19.390;2023-07-02T07:53:41;5.22;;;3.92;;
22131;SDS011;11232;51.748;19.390;2023-07-02T07:56:07;6.72;;;4.47;;
22131;SDS011;11232;51.748;19.390;2023-07-02T07:58:33;5.47;;;3.65;;
22131;SDS011;11232;51.748;19.390;2023-07-02T08:00:59;5.07;;;3.58;;
22131;SDS011;11232;51.748;19.390;2023-07-02T08:03:25;5.25;;;3.40;;
22131;SDS011;11232;51.748;19.390;2023-07-02T08:05:51;4.07;;;3.50;;
22131;SDS011;11232;51.748;19.390;2023-07-02T08:08:17;3.72;;;3.33;;
22131;SDS011;11232;51.748;19.390;2023-07-02T08:10:43;5.78;;;3.40;;
22131;SDS011;11232;51.748;19.390;2023-07-02T08:13:11;3.95;;;3.08;;
22131;SDS011;11232;51.748;19.390;2023-07-02T08:15:38;5.88;;;3.08;;
22131;SDS011;11232;51.748;19.390;2023-07-02T08:18:04;2.92;;;2.63;;
22131;SDS011;11232;51.748;19.390;2023-07-02T08:20:32;4.60;;;2.80;;
22131;SDS011;11232;51.748;19.390;2023-07-02T08:22:58;5.60;;;3.05;;
22131;SDS011;11232;51.748;19.390;2023-07-02T08:25:24;3.08;;;2.70;;
22131;SDS011;11232;51.748;19.390;2023-07-02T08:27:52;4.40;;;2.50;;
22131;SDS011;11232;51.748;19.390;2023-07-02T08:30:18;2.40;;;2.20;;
22131;SDS011;11232;51.748;19.390;2023-07-02T08:32:45;5.65;;;2.30;;
22131;SDS011;11232;51.748;19.390;2023-07-02T08:35:11;2.55;;;2.35;;
22131;SDS011;11232;51.748;19.390;2023-07-02T08:37:37;4.05;;;2.85;;
22131;SDS011;11232;51.748;19.390;2023-07-02T08:40:03;3.20;;;2.78;;
22131;SDS011;11232;51.748;19.390;2023-07-02T08:42:31;3.17;;;2.50;;
22131;SDS011;11232;51.748;19.390;2023-07-02T08:44:57;2.30;;;2.10;;
22131;SDS011;11232;51.748;19.390;2023-07-02T08:47:25;2.35;;;2.25;;
22131;SDS011;11232;51.748;19.390;2023-07-02T08:49:51;6.05;;;2.78;;
22131;SDS011;11232;51.748;19.390;2023-07-02T08:52:17;4.05;;;2.70;;
22131;SDS011;11232;51.748;19.390;2023-07-02T08:54:43;3.92;;;2.60;;
22131;SDS011;11232;51.748;19.390;2023-07-02T08:57:09;2.75;;;2.55;;
22131;SDS011;11232;51.748;19.390;2023-07-02T08:59:35;3.08;;;2.60;;
22131;SDS011;11232;51.748;19.390;2023-07-02T09:02:01;6.18;;;2.40;;
22131;SDS011;11232;51.748;19.390;2023-07-02T09:04:27;4.43;;;2.53;;
22131;SDS011;11232;51.748;19.390;2023-07-02T09:07:06;6.82;;;2.47;;
22131;SDS011;11232;51.748;19.390;2023-07-02T09:09:33;2.70;;;2.17;;
22131;SDS011;11232;51.748;19.390;2023-07-02T09:12:00;3.05;;;2.75;;
22131;SDS011;11232;51.748;19.390;2023-07-02T09:14:27;4.55;;;2.90;;
22131;SDS011;11232;51.748;19.390;2023-07-02T09:17:06;2.55;;;2.35;;
22131;SDS011;11232;51.748;19.390;2023-07-02T09:19:33;2.95;;;2.53;;
22131;SDS011;11232;51.748;19.390;2023-07-02T09:22:00;2.70;;;2.33;;
22131;SDS011;11232;51.748;19.390;2023-07-02T09:24:26;3.90;;;2.80;;
22131;SDS011;11232;51.748;19.390;2023-07-02T09:26:53;2.45;;;2.25;;
22131;SDS011;11232;51.748;19.390;2023-07-02T09:29:21;3.25;;;2.40;;
22131;SDS011;11232;51.748;19.390;2023-07-02T09:31:50;3.88;;;2.38;;
22131;SDS011;11232;51.748;19.390;2023-07-02T09:34:16;4.15;;;2.25;;
22131;SDS011;11232;51.748;19.390;2023-07-02T09:36:42;5.97;;;2.03;;
22131;SDS011;11232;51.748;19.390;2023-07-02T09:39:13;2.22;;;2.00;;
22131;SDS011;11232;51.748;19.390;2023-07-02T09:41:42;2.45;;;2.10;;
22131;SDS011;11232;51.748;19.390;2023-07-02T09:44:09;2.10;;;1.90;;
22131;SDS011;11232;51.748;19.390;2023-07-02T09:46:37;2.30;;;2.20;;
22131;SDS011;11232;51.748;19.390;2023-07-02T09:49:03;2.47;;;2.10;;
22131;SDS011;11232;51.748;19.390;2023-07-02T09:51:30;2.03;;;1.92;;
22131;SDS011;11232;51.748;19.390;2023-07-02T09:53:57;3.67;;;2.20;;
22131;SDS011;11232;51.748;19.390;2023-07-02T09:56:23;2.33;;;2.13;;
22131;SDS011;11232;51.748;19.390;2023-07-02T09:58:49;2.72;;;2.00;;
22131;SDS011;11232;51.748;19.390;2023-07-02T10:01:16;2.35;;;1.95;;
22131;SDS011;11232;51.748;19.390;2023-07-02T10:03:42;3.42;;;2.42;;
22131;SDS011;11232;51.748;19.390;2023-07-02T10:06:08;2.60;;;2.00;;
22131;SDS011;11232;51.748;19.390;2023-07-02T10:08:34;3.22;;;2.53;;
22131;SDS011;11232;51.748;19.390;2023-07-02T10:11:07;2.25;;;2.13;;
22131;SDS011;11232;51.748;19.390;2023-07-02T10:13:34;2.67;;;1.95;;
22131;SDS011;11232;51.748;19.390;2023-07-02T10:16:00;3.30;;;1.92;;
22131;SDS011;11232;51.748;19.390;2023-07-02T10:18:26;6.65;;;2.50;;
22131;SDS011;11232;51.748;19.390;2023-07-02T10:20:52;2.95;;;2.13;;
22131;SDS011;11232;51.748;19.390;2023-07-02T10:23:18;2.70;;;2.22;;
22131;SDS011;11232;51.748;19.390;2023-07-02T10:25:44;2.03;;;1.92;;
22131;SDS011;11232;51.748;19.390;2023-07-02T10:28:17;3.95;;;2.20;;
22131;SDS011;11232;51.748;19.390;2023-07-02T10:30:44;3.92;;;2.10;;
22131;SDS011;11232;51.748;19.390;2023-07-02T10:33:11;6.18;;;2.00;;
22131;SDS011;11232;51.748;19.390;2023-07-02T10:35:37;5.10;;;1.90;;
22131;SDS011;11232;51.748;19.390;2023-07-02T10:38:04;2.72;;;2.17;;
22131;SDS011;11232;51.748;19.390;2023-07-02T10:40:31;3.33;;;1.95;;
22131;SDS011;11232;51.748;19.390;2023-07-02T10:42:58;8.38;;;2.40;;
22131;SDS011;11232;51.748;19.390;2023-07-02T10:45:34;3.15;;;1.80;;
22131;SDS011;11232;51.748;19.390;2023-07-02T10:48:03;2.45;;;2.25;;
22131;SDS011;11232;51.748;19.390;2023-07-02T10:50:30;4.32;;;2.38;;
22131;SDS011;11232;51.748;19.390;2023-07-02T10:52:56;2.22;;;2.00;;
22131;SDS011;11232;51.748;19.390;2023-07-02T10:55:23;4.40;;;2.35;;
22131;SDS011;11232;51.748;19.390;2023-07-02T10:57:49;3.72;;;2.13;;
22131;SDS011;11232;51.748;19.390;2023-07-02T11:00:16;2.45;;;2.10;;
22131;SDS011;11232;51.748;19.390;2023-07-02T11:02:43;3.08;;;2.22;;
22131;SDS011;11232;51.748;19.390;2023-07-02T11:05:09;2.92;;;2.10;;
22131;SDS011;11232;51.748;19.390;2023-07-02T11:07:39;4.60;;;2.25;;
22131;SDS011;11232;51.748;19.390;2023-07-02T11:10:06;3.92;;;2.20;;
22131;SDS011;11232;51.748;19.390;2023-07-02T11:12:32;4.30;;;2.53;;
22131;SDS011;11232;51.748;19.390;2023-07-02T11:15:10;3.55;;;2.53;;
22131;SDS011;11232;51.748;19.390;2023-07-02T11:17:37;3.33;;;2.10;;
22131;SDS011;11232;51.748;19.390;2023-07-02T11:20:04;2.25;;;2.05;;
22131;SDS011;11232;51.748;19.390;2023-07-02T11:22:31;3.55;;;2.10;;
22131;SDS011;11232;51.748;19.390;2023-07-02T11:25:00;3.53;;;2.38;;
22131;SDS011;11232;51.748;19.390;2023-07-02T11:27:33;2.75;;;2.55;;
22131;SDS011;11232;51.748;19.390;2023-07-02T11:29:59;6.35;;;2.25;;
22131;SDS011;11232;51.748;19.390;2023-07-02T11:32:25;2.33;;;2.08;;
22131;SDS011;11232;51.748;19.390;2023-07-02T11:34:54;4.28;;;2.00;;
22131;SDS011;11232;51.748;19.390;2023-07-02T11:37:21;3.28;;;2.20;;
22131;SDS011;11232;51.748;19.390;2023-07-02T11:39:47;5.07;;;1.90;;
22131;SDS011;11232;51.748;19.390;2023-07-02T11:42:13;2.08;;;1.88;;
22131;SDS011;11232;51.748;19.390;2023-07-02T11:44:40;1.80;;;1.70;;
22131;SDS011;11232;51.748;19.390;2023-07-02T11:47:06;1.85;;;1.70;;
22131;SDS011;11232;51.748;19.390;2023-07-02T11:49:32;3.08;;;1.95;;
22131;SDS011;11232;51.748;19.390;2023-07-02T11:51:58;5.78;;;2.05;;
22131;SDS011;11232;51.748;19.390;2023-07-02T11:54:24;4.03;;;2.22;;
22131;SDS011;11232;51.748;19.390;2023-07-02T11:56:50;2.85;;;2.13;;
22131;SDS011;11232;51.748;19.390;2023-07-02T11:59:16;6.18;;;2.78;;
22131;SDS011;11232;51.748;19.390;2023-07-02T12:01:42;4.20;;;2.40;;
22131;SDS011;11232;51.748;19.390;2023-07-02T12:04:09;2.55;;;2.35;;
22131;SDS011;11232;51.748;19.390;2023-07-02T12:06:37;2.30;;;2.00;;
22131;SDS011;11232;51.748;19.390;2023-07-02T12:09:03;2.03;;;1.92;;
22131;SDS011;11232;51.748;19.390;2023-07-02T12:11:29;2.45;;;2.05;;
22131;SDS011;11232;51.748;19.390;2023-07-02T12:13:55;5.03;;;1.90;;
22131;SDS011;11232;51.748;19.390;2023-07-02T12:16:21;1.90;;;1.80;;
22131;SDS011;11232;51.748;19.390;2023-07-02T12:18:47;2.55;;;2.13;;
22131;SDS011;11232;51.748;19.390;2023-07-02T12:21:13;3.67;;;2.40;;
22131;SDS011;11232;51.748;19.390;2023-07-02T12:23:39;3.53;;;2.00;;
22131;SDS011;11232;51.748;19.390;2023-07-02T12:26:05;3.15;;;2.20;;
22131;SDS011;11232;51.748;19.390;2023-07-02T12:28:31;2.83;;;1.92;;
22131;SDS011;11232;51.748;19.390;2023-07-02T12:30:57;2.80;;;1.77;;
22131;SDS011;11232;51.748;19.390;2023-07-02T12:33:23;2.30;;;2.10;;
22131;SDS011;11232;51.748;19.390;2023-07-02T12:35:49;3.13;;;1.83;;
22131;SDS011;11232;51.748;19.390;2023-07-02T12:38:15;2.05;;;1.95;;
22131;SDS011;11232;51.748;19.390;2023-07-02T12:40:40;2.45;;;1.95;;
22131;SDS011;11232;51.748;19.390;2023-07-02T12:43:06;2.58;;;1.85;;
22131;SDS011;11232;51.748;19.390;2023-07-02T12:45:32;2.20;;;2.10;;
22131;SDS011;11232;51.748;19.390;2023-07-02T12:47:58;2.22;;;1.80;;
22131;SDS011;11232;51.748;19.390;2023-07-02T12:50:24;3.92;;;1.77;;
22131;SDS011;11232;51.748;19.390;2023-07-02T12:52:50;5.82;;;2.13;;
22131;SDS011;11232;51.748;19.390;2023-07-02T12:55:16;7.93;;;3.53;;
22131;SDS011;11232;51.748;19.390;2023-07-02T12:57:42;14.10;;;5.68;;
22131;SDS011;11232;51.748;19.390;2023-07-02T13:00:08;19.55;;;8.30;;
22131;SDS011;11232;51.748;19.390;2023-07-02T13:02:34;19.52;;;7.85;;
22131;SDS011;11232;51.748;19.390;2023-07-02T13:05:00;14.20;;;6.63;;
22131;SDS011;11232;51.748;19.390;2023-07-02T13:07:27;8.27;;;4.05;;
22131;SDS011;11232;51.748;19.390;2023-07-02T13:09:55;8.32;;;3.92;;
22131;SDS011;11232;51.748;19.390;2023-07-02T13:12:21;5.70;;;2.90;;
22131;SDS011;11232;51.748;19.390;2023-07-02T13:14:47;6.95;;;2.80;;
22131;SDS011;11232;51.748;19.390;2023-07-02T13:17:13;4.35;;;2.30;;
22131;SDS011;11232;51.748;19.390;2023-07-02T13:19:39;3.40;;;2.70;;
22131;SDS011;11232;51.748;19.390;2023-07-02T13:22:05;6.78;;;2.42;;
22131;SDS011;11232;51.748;19.390;2023-07-02T13:24:34;3.97;;;2.33;;
22131;SDS011;11232;51.748;19.390;2023-07-02T13:27:01;3.28;;;2.40;;
22131;SDS011;11232;51.748;19.390;2023-07-02T13:29:28;2.67;;;2.47;;
22131;SDS011;11232;51.748;19.390;2023-07-02T13:31:54;2.80;;;2.60;;
22131;SDS011;11232;51.748;19.390;2023-07-02T13:34:20;3.70;;;2.33;;
22131;SDS011;11232;51.748;19.390;2023-07-02T13:36:45;5.82;;;2.30;;
22131;SDS011;11232;51.748;19.390;2023-07-02T13:39:11;2.50;;;2.30;;
22131;SDS011;11232;51.748;19.390;2023-07-02T13:41:37;4.43;;;2.58;;
22131;SDS011;11232;51.748;19.390;2023-07-02T13:44:03;2.38;;;2.17;;
22131;SDS011;11232;51.748;19.390;2023-07-02T13:46:30;5.40;;;2.40;;
22131;SDS011;11232;51.748;19.390;2023-07-02T13:48:56;4.32;;;2.45;;
22131;SDS011;11232;51.748;19.390;2023-07-02T13:51:22;2.35;;;2.15;;
22131;SDS011;11232;51.748;19.390;2023-07-02T13:53:48;3.00;;;2.20;;
22131;SDS011;11232;51.748;19.390;2023-07-02T13:56:14;4.13;;;2.25;;
22131;SDS011;11232;51.748;19.390;2023-07-02T13:58:47;3.03;;;2.08;;
22131;SDS011;11232;51.748;19.390;2023-07-02T14:01:13;3.58;;;2.30;;
22131;SDS011;11232;51.748;19.390;2023-07-02T14:03:39;4.07;;;2.35;;
22131;SDS011;11232;51.748;19.390;2023-07-02T14:06:05;2.53;;;2.33;;
22131;SDS011;11232;51.748;19.390;2023-07-02T14:08:31;3.78;;;2.40;;
22131;SDS011;11232;51.748;19.390;2023-07-02T14:10:57;2.65;;;1.88;;
22131;SDS011;11232;51.748;19.390;2023-07-02T14:13:23;2.40;;;2.20;;
22131;SDS011;11232;51.748;19.390;2023-07-02T14:15:49;2.60;;;2.40;;
22131;SDS011;11232;51.748;19.390;2023-07-02T14:18:16;3.17;;;2.10;;